Time;durP1;ratioP1;P1;durP2;ratioP2;P2;SDS_P1;SDS_P2;PMS_P1;PMS_P2;Temp;Humidity;BMP_temperature;BMP_pressure;BME280_temperature;BME280_humidity;BME280_pressure;Samples;Min_cycle;Max_cycle;Signal;HPM_P1;HPM_P2
2023/07/19 00:01:18;;;;;;;0.10;0.10;;;;;;;;;;5081198;28;20286;-75
2023/07/19 00:03:44;;;;;;;0.13;0.13;;;;;;;;;;5090140;28;20472;-75
2023/07/19 00:06:10;;;;;;;0.00;0.00;;;;;;;;;;5080836;28;20245;-76
2023/07/19 00:08:37;;;;;;;0.05;0.05;;;;;;;;;;5090547;28;20207;-76
2023/07/19 00:11:03;;;;;;;0.55;0.55;;;;;;;;;;5079939;28;20261;-75
2023/07/19 00:13:30;;;;;;;0.00;0.00;;;;;;;;;;5094854;28;20276;-75
2023/07/19 00:15:58;;;;;;;0.10;0.10;;;;;;;;;;5082352;28;20240;-75
2023/07/19 00:18:24;;;;;;;0.00;0.00;;;;;;;;;;5095569;28;20213;-76
2023/07/19 00:20:51;;;;;;;0.00;0.00;;;;;;;;;;5081816;28;20239;-76
2023/07/19 00:23:17;;;;;;;0.10;0.10;;;;;;;;;;5096233;28;20248;-76
2023/07/19 00:25:45;;;;;;;0.10;0.10;;;;;;;;;;5080804;28;20268;-75
2023/07/19 00:28:11;;;;;;;0.73;0.68;;;;;;;;;;5097258;28;20204;-76
2023/07/19 00:30:38;;;;;;;0.00;0.00;;;;;;;;;;5079885;28;20246;-76
2023/07/19 00:33:06;;;;;;;0.10;0.10;;;;;;;;;;5097731;28;20396;-75
2023/07/19 00:35:33;;;;;;;0.00;0.00;;;;;;;;;;5079131;28;20312;-75
2023/07/19 00:37:59;;;;;;;0.00;0.00;;;;;;;;;;5098762;28;20194;-76
2023/07/19 00:40:25;;;;;;;0.00;0.00;;;;;;;;;;5078280;28;20233;-75
2023/07/19 00:42:55;;;;;;;0.00;0.00;;;;;;;;;;5099510;28;20456;-75
2023/07/19 00:45:22;;;;;;;0.00;0.00;;;;;;;;;;5077740;28;20225;-74
2023/07/19 00:47:48;;;;;;;0.10;0.10;;;;;;;;;;5099982;28;20260;-75
2023/07/19 00:50:16;;;;;;;0.00;0.00;;;;;;;;;;5076745;28;20277;-75
2023/07/19 00:52:43;;;;;;;0.10;0.10;;;;;;;;;;5100321;28;20210;-76
2023/07/19 00:55:10;;;;;;;0.00;0.00;;;;;;;;;;5075559;28;20205;-77
2023/07/19 00:57:36;;;;;;;0.00;0.00;;;;;;;;;;5101160;28;20378;-77
2023/07/19 01:00:04;;;;;;;0.03;0.03;;;;;;;;;;5085851;28;20235;-77
2023/07/19 01:02:31;;;;;;;0.00;0.00;;;;;;;;;;5091293;28;20473;-77
2023/07/19 01:04:57;;;;;;;0.00;0.00;;;;;;;;;;5085555;28;20206;-77
2023/07/19 01:07:25;;;;;;;0.20;0.20;;;;;;;;;;5091120;28;20245;-76
2023/07/19 01:09:51;;;;;;;0.10;0.10;;;;;;;;;;5085469;28;20213;-76
2023/07/19 01:12:19;;;;;;;0.10;0.10;;;;;;;;;;5090825;28;20271;-76
2023/07/19 01:14:45;;;;;;;0.10;0.10;;;;;;;;;;5085793;28;20224;-76
2023/07/19 01:17:12;;;;;;;0.00;0.00;;;;;;;;;;5090885;28;20485;-76
2023/07/19 01:19:38;;;;;;;0.00;0.00;;;;;;;;;;5085611;28;20459;-76
2023/07/19 01:22:06;;;;;;;0.08;0.08;;;;;;;;;;5090231;28;20239;-76
2023/07/19 01:24:33;;;;;;;0.08;0.08;;;;;;;;;;5084710;28;20266;-76
2023/07/19 01:27:00;;;;;;;0.20;0.20;;;;;;;;;;5089607;28;20467;-76
2023/07/19 01:29:26;;;;;;;0.05;0.05;;;;;;;;;;5086281;28;20379;-76
2023/07/19 01:31:52;;;;;;;0.08;0.08;;;;;;;;;;5088576;28;20239;-76
2023/07/19 01:34:19;;;;;;;0.00;0.00;;;;;;;;;;5087171;28;20267;-76
2023/07/19 01:36:45;;;;;;;0.00;0.00;;;;;;;;;;5087537;28;20514;-77
2023/07/19 01:39:11;;;;;;;0.10;0.10;;;;;;;;;;5087726;28;20213;-76
2023/07/19 01:41:39;;;;;;;0.10;0.10;;;;;;;;;;5086272;28;20306;-76
2023/07/19 01:44:06;;;;;;;0.03;0.03;;;;;;;;;;5088573;28;20225;-76
2023/07/19 01:46:32;;;;;;;0.08;0.08;;;;;;;;;;5085708;28;20263;-76
2023/07/19 01:48:58;;;;;;;0.10;0.10;;;;;;;;;;5089219;28;20393;-76
2023/07/19 01:51:25;;;;;;;0.00;0.00;;;;;;;;;;5084557;28;20493;-76
2023/07/19 01:53:51;;;;;;;0.00;0.00;;;;;;;;;;5090436;28;20465;-76
2023/07/19 01:56:18;;;;;;;0.10;0.10;;;;;;;;;;5083438;28;20255;-76
2023/07/19 01:58:45;;;;;;;0.10;0.10;;;;;;;;;;5090978;28;20206;-76
2023/07/19 02:01:12;;;;;;;0.00;0.00;;;;;;;;;;5082537;28;20307;-77
2023/07/19 02:03:38;;;;;;;0.00;0.00;;;;;;;;;;5091635;28;20222;-77
2023/07/19 02:06:05;;;;;;;0.05;0.05;;;;;;;;;;5081459;28;20236;-76
2023/07/19 02:08:31;;;;;;;0.00;0.00;;;;;;;;;;5092536;28;20205;-76
2023/07/19 02:10:57;;;;;;;0.00;0.00;;;;;;;;;;5080696;28;20304;-76
2023/07/19 02:13:24;;;;;;;0.00;0.00;;;;;;;;;;5093289;28;20201;-76
2023/07/19 02:15:51;;;;;;;0.10;0.10;;;;;;;;;;5079377;28;20249;-76
2023/07/19 02:18:18;;;;;;;0.03;0.03;;;;;;;;;;5094182;28;20280;-76
2023/07/19 02:20:45;;;;;;;0.00;0.00;;;;;;;;;;5078767;28;20239;-76
2023/07/19 02:23:11;;;;;;;0.10;0.10;;;;;;;;;;5094875;28;20273;-76
2023/07/19 02:25:40;;;;;;;0.03;0.03;;;;;;;;;;5077853;28;20242;-76
2023/07/19 02:28:06;;;;;;;0.00;0.00;;;;;;;;;;5095393;28;20264;-76
2023/07/19 02:30:32;;;;;;;0.00;0.00;;;;;;;;;;5076943;28;20251;-77
2023/07/19 02:33:00;;;;;;;0.00;0.00;;;;;;;;;;5096353;28;20275;-77
2023/07/19 02:35:27;;;;;;;0.00;0.00;;;;;;;;;;5075594;28;20655;-77
2023/07/19 02:37:53;;;;;;;0.03;0.03;;;;;;;;;;5097113;28;20235;-77
2023/07/19 02:40:19;;;;;;;0.10;0.10;;;;;;;;;;5074889;28;20224;-76
2023/07/19 02:42:46;;;;;;;0.00;0.00;;;;;;;;;;5098243;28;20254;-76
2023/07/19 02:45:12;;;;;;;0.00;0.00;;;;;;;;;;5074219;28;20267;-76
2023/07/19 02:47:38;;;;;;;0.10;0.10;;;;;;;;;;5099094;28;20225;-76
2023/07/19 02:50:07;;;;;;;0.03;0.03;;;;;;;;;;5083661;28;20227;-76
2023/07/19 02:52:33;;;;;;;0.10;0.10;;;;;;;;;;5052450;28;20405;-76
2023/07/19 02:55:00;;;;;;;0.10;0.10;;;;;;;;;;5063808;28;20416;-76
2023/07/19 02:57:26;;;;;;;0.08;0.08;;;;;;;;;;5088399;28;20251;-76
2023/07/19 02:59:52;;;;;;;0.08;0.08;;;;;;;;;;5083476;28;20205;-76
2023/07/19 03:02:19;;;;;;;0.10;0.10;;;;;;;;;;5088978;28;20244;-76
2023/07/19 03:04:46;;;;;;;0.00;0.00;;;;;;;;;;5083629;28;20482;-77
2023/07/19 03:07:14;;;;;;;0.10;0.10;;;;;;;;;;5088991;28;20293;-76
2023/07/19 03:09:40;;;;;;;0.10;0.10;;;;;;;;;;5083511;28;20223;-76
2023/07/19 03:12:07;;;;;;;0.10;0.10;;;;;;;;;;5088660;28;20263;-76
2023/07/19 03:14:33;;;;;;;0.00;0.00;;;;;;;;;;5083441;28;20241;-76
2023/07/19 03:17:00;;;;;;;0.10;0.10;;;;;;;;;;5087684;28;20244;-76
2023/07/19 03:19:26;;;;;;;0.10;0.10;;;;;;;;;;5084611;28;20243;-76
2023/07/19 03:21:53;;;;;;;0.00;0.00;;;;;;;;;;5086741;28;20310;-76
2023/07/19 03:24:21;;;;;;;0.00;0.00;;;;;;;;;;5085023;28;20290;-76
2023/07/19 03:26:47;;;;;;;0.05;0.05;;;;;;;;;;5085944;28;20248;-76
2023/07/19 03:29:13;;;;;;;0.00;0.00;;;;;;;;;;5085910;28;20233;-76
2023/07/19 03:31:40;;;;;;;0.05;0.05;;;;;;;;;;5084942;28;20264;-76
2023/07/19 03:34:06;;;;;;;0.00;0.00;;;;;;;;;;5086986;28;20247;-76
2023/07/19 03:36:33;;;;;;;0.05;0.05;;;;;;;;;;5083968;28;20251;-76
2023/07/19 03:38:59;;;;;;;0.03;0.03;;;;;;;;;;5087694;28;20275;-76
2023/07/19 03:41:27;;;;;;;0.10;0.10;;;;;;;;;;5083006;28;20486;-76
2023/07/19 03:43:54;;;;;;;0.10;0.10;;;;;;;;;;5088658;28;20254;-76
2023/07/19 03:46:20;;;;;;;0.00;0.00;;;;;;;;;;5082918;28;20261;-76
2023/07/19 03:48:46;;;;;;;0.10;0.10;;;;;;;;;;5093535;28;20231;-75
2023/07/19 03:51:13;;;;;;;0.05;0.05;;;;;;;;;;5085197;28;20239;-76
2023/07/19 03:53:39;;;;;;;0.08;0.08;;;;;;;;;;5094077;28;20211;-76
2023/07/19 03:56:06;;;;;;;0.10;0.10;;;;;;;;;;5084059;28;20458;-76
2023/07/19 03:58:33;;;;;;;0.00;0.00;;;;;;;;;;5094817;28;20267;-76
2023/07/19 04:01:03;;;;;;;0.10;0.10;;;;;;;;;;5083230;28;20502;-76
2023/07/19 04:03:29;;;;;;;0.10;0.10;;;;;;;;;;5095234;28;20208;-76
2023/07/19 04:05:57;;;;;;;0.10;0.10;;;;;;;;;;5082262;28;20313;-75
2023/07/19 04:08:23;;;;;;;0.03;0.03;;;;;;;;;;5096532;28;20291;-76
2023/07/19 04:10:50;;;;;;;0.00;0.00;;;;;;;;;;5081924;28;20302;-76
2023/07/19 04:13:16;;;;;;;0.10;0.10;;;;;;;;;;5097118;28;20275;-75
2023/07/19 04:15:44;;;;;;;0.20;0.20;;;;;;;;;;5080632;28;20310;-76
2023/07/19 04:18:10;;;;;;;0.10;0.10;;;;;;;;;;5097524;28;20236;-76
2023/07/19 04:20:37;;;;;;;0.05;0.05;;;;;;;;;;5080213;28;20445;-76
2023/07/19 04:23:04;;;;;;;0.10;0.10;;;;;;;;;;5098143;28;20395;-76
2023/07/19 04:25:31;;;;;;;0.10;0.10;;;;;;;;;;5079144;28;20413;-76
2023/07/19 04:27:57;;;;;;;0.10;0.10;;;;;;;;;;5098954;28;20436;-76
2023/07/19 04:30:23;;;;;;;0.10;0.10;;;;;;;;;;5078338;28;20245;-76
2023/07/19 04:32:55;;;;;;;0.03;0.03;;;;;;;;;;5100070;28;20409;-76
2023/07/19 04:35:21;;;;;;;0.03;0.03;;;;;;;;;;5077960;28;20204;-76
2023/07/19 04:37:48;;;;;;;0.10;0.10;;;;;;;;;;5100025;28;20220;-76
2023/07/19 04:40:14;;;;;;;0.10;0.10;;;;;;;;;;5076877;28;20203;-75
2023/07/19 04:42:41;;;;;;;0.10;0.10;;;;;;;;;;5100770;28;20212;-76
2023/07/19 04:45:08;;;;;;;0.10;0.10;;;;;;;;;;5081930;28;20259;-76
2023/07/19 04:47:37;;;;;;;0.00;0.00;;;;;;;;;;5101390;28;20276;-76
2023/07/19 04:50:05;;;;;;;0.03;0.03;;;;;;;;;;5085786;28;20211;-76
2023/07/19 04:52:31;;;;;;;0.00;0.00;;;;;;;;;;5054732;28;20212;-76
2023/07/19 04:54:58;;;;;;;0.10;0.10;;;;;;;;;;5065818;28;20200;-76
2023/07/19 04:57:24;;;;;;;0.10;0.10;;;;;;;;;;5089943;28;20306;-75
2023/07/19 04:59:51;;;;;;;0.00;0.00;;;;;;;;;;5085134;28;20394;-76
2023/07/19 05:02:17;;;;;;;0.00;0.00;;;;;;;;;;5091098;28;20244;-76
2023/07/19 05:04:44;;;;;;;0.10;0.10;;;;;;;;;;5085511;28;20297;-76
2023/07/19 05:07:11;;;;;;;0.00;0.00;;;;;;;;;;5091014;28;20241;-75
2023/07/19 05:09:38;;;;;;;0.00;0.00;;;;;;;;;;5085894;28;20235;-76
2023/07/19 05:12:04;;;;;;;0.10;0.10;;;;;;;;;;5090652;28;20265;-76
2023/07/19 05:14:31;;;;;;;0.10;0.10;;;;;;;;;;5085953;28;20441;-76
2023/07/19 05:16:57;;;;;;;0.10;0.10;;;;;;;;;;5089547;28;20261;-75
2023/07/19 05:19:24;;;;;;;0.03;0.03;;;;;;;;;;5086844;28;20212;-76
2023/07/19 05:21:50;;;;;;;0.10;0.10;;;;;;;;;;5088216;28;20240;-76
2023/07/19 05:24:18;;;;;;;0.03;0.03;;;;;;;;;;5087185;28;20299;-76
2023/07/19 05:26:44;;;;;;;0.10;0.10;;;;;;;;;;5087446;28;20239;-77
2023/07/19 05:29:11;;;;;;;0.03;0.03;;;;;;;;;;5088321;28;20227;-77
2023/07/19 05:31:37;;;;;;;0.10;0.10;;;;;;;;;;5086767;28;20281;-71
2023/07/19 05:34:04;;;;;;;0.05;0.05;;;;;;;;;;5089090;28;20271;-71
2023/07/19 05:36:30;;;;;;;0.10;0.10;;;;;;;;;;5085715;28;20457;-71
2023/07/19 05:38:57;;;;;;;0.00;0.00;;;;;;;;;;5089690;28;20212;-73
2023/07/19 05:41:24;;;;;;;0.10;0.10;;;;;;;;;;5084486;28;20303;-74
2023/07/19 05:43:53;;;;;;;0.35;0.35;;;;;;;;;;5090601;28;20200;-76
2023/07/19 05:46:19;;;;;;;0.00;0.00;;;;;;;;;;5083784;28;20522;-76
2023/07/19 05:48:46;;;;;;;0.10;0.10;;;;;;;;;;5091424;28;20212;-76
2023/07/19 05:51:12;;;;;;;0.10;0.10;;;;;;;;;;5082872;28;20443;-76
2023/07/19 05:53:38;;;;;;;0.10;0.10;;;;;;;;;;5091839;28;20253;-76
2023/07/19 05:56:05;;;;;;;0.10;0.10;;;;;;;;;;5081859;28;20236;-76
2023/07/19 05:58:33;;;;;;;0.10;0.10;;;;;;;;;;5092701;28;20206;-76
2023/07/19 06:00:59;;;;;;;0.00;0.00;;;;;;;;;;5080801;28;20442;-76
2023/07/19 06:03:26;;;;;;;0.08;0.08;;;;;;;;;;5093595;28;20198;-76
2023/07/19 06:05:52;;;;;;;0.10;0.10;;;;;;;;;;5080011;28;20267;-76
2023/07/19 06:08:18;;;;;;;0.00;0.00;;;;;;;;;;5094072;28;20226;-76
2023/07/19 06:10:45;;;;;;;0.03;0.03;;;;;;;;;;5078860;28;20267;-76
2023/07/19 06:13:13;;;;;;;0.00;0.00;;;;;;;;;;5095273;28;20271;-76
2023/07/19 06:15:41;;;;;;;0.08;0.08;;;;;;;;;;5078535;28;20422;-77
2023/07/19 06:18:08;;;;;;;0.00;0.00;;;;;;;;;;5095729;28;20431;-76
2023/07/19 06:20:34;;;;;;;0.10;0.10;;;;;;;;;;5077167;28;20263;-76
2023/07/19 06:23:00;;;;;;;0.00;0.00;;;;;;;;;;5096366;28;20221;-77
2023/07/19 06:25:27;;;;;;;0.00;0.00;;;;;;;;;;5076161;28;20258;-77
2023/07/19 06:27:53;;;;;;;0.00;0.00;;;;;;;;;;5097230;28;20450;-76
2023/07/19 06:30:19;;;;;;;0.00;0.00;;;;;;;;;;5075446;28;20473;-76
2023/07/19 06:32:47;;;;;;;0.10;0.10;;;;;;;;;;5098415;28;20433;-76
2023/07/19 06:35:14;;;;;;;0.05;0.05;;;;;;;;;;5074624;28;20202;-76
2023/07/19 06:37:40;;;;;;;0.45;0.45;;;;;;;;;;5098972;28;20245;-76
2023/07/19 06:40:07;;;;;;;0.10;0.10;;;;;;;;;;5084010;28;20241;-76
2023/07/19 06:42:34;;;;;;;0.00;0.00;;;;;;;;;;5072385;28;20286;-76
2023/07/19 06:45:00;;;;;;;0.00;0.00;;;;;;;;;;5083610;28;20223;-76
2023/07/19 06:47:28;;;;;;;0.00;0.00;;;;;;;;;;5089228;28;20258;-76
2023/07/19 06:49:57;;;;;;;0.10;0.10;;;;;;;;;;5084039;28;20392;-76
2023/07/19 06:52:24;;;;;;;0.00;0.00;;;;;;;;;;5089134;28;20449;-76
2023/07/19 06:54:50;;;;;;;0.00;0.00;;;;;;;;;;5083756;28;20208;-76
2023/07/19 06:57:17;;;;;;;0.00;0.00;;;;;;;;;;5089354;28;20245;-76
2023/07/19 06:59:43;;;;;;;0.00;0.00;;;;;;;;;;5083741;28;20411;-76
2023/07/19 07:02:10;;;;;;;0.00;0.00;;;;;;;;;;5089157;28;20310;-76
2023/07/19 07:04:36;;;;;;;0.00;0.00;;;;;;;;;;5083841;28;20401;-76
2023/07/19 07:07:04;;;;;;;0.13;0.13;;;;;;;;;;5088207;28;20252;-76
2023/07/19 07:09:30;;;;;;;0.10;0.10;;;;;;;;;;5084311;28;20438;-76
2023/07/19 07:11:57;;;;;;;0.10;0.10;;;;;;;;;;5087378;28;20241;-75
2023/07/19 07:14:24;;;;;;;0.00;0.00;;;;;;;;;;5085080;28;20205;-76
2023/07/19 07:16:50;;;;;;;0.00;0.00;;;;;;;;;;5086660;28;20453;-76
2023/07/19 07:19:16;;;;;;;0.10;0.10;;;;;;;;;;5085646;28;20205;-76
2023/07/19 07:21:43;;;;;;;0.00;0.00;;;;;;;;;;5086782;28;20304;-76
2023/07/19 07:24:10;;;;;;;0.10;0.10;;;;;;;;;;5090778;28;20205;-76
2023/07/19 07:26:37;;;;;;;0.10;0.10;;;;;;;;;;5088877;28;20246;-76
2023/07/19 07:29:04;;;;;;;0.00;0.00;;;;;;;;;;5091667;28;20226;-77
2023/07/19 07:31:31;;;;;;;0.10;0.10;;;;;;;;;;5088223;28;20249;-76
2023/07/19 07:33:58;;;;;;;0.10;0.10;;;;;;;;;;5092028;28;20229;-77
2023/07/19 07:36:25;;;;;;;0.00;0.00;;;;;;;;;;5087014;28;20264;-76
2023/07/19 07:38:51;;;;;;;0.00;0.00;;;;;;;;;;5093054;28;20207;-76
2023/07/19 07:41:19;;;;;;;0.00;0.00;;;;;;;;;;5086427;28;20245;-76
2023/07/19 07:43:45;;;;;;;0.85;0.85;;;;;;;;;;5093536;28;20226;-76
2023/07/19 07:46:12;;;;;;;0.00;0.00;;;;;;;;;;5085282;28;20241;-76
2023/07/19 07:48:38;;;;;;;0.00;0.00;;;;;;;;;;5094846;28;20229;-75
2023/07/19 07:51:05;;;;;;;0.00;0.00;;;;;;;;;;5084496;28;20234;-73
2023/07/19 07:53:32;;;;;;;0.00;0.00;;;;;;;;;;5095584;28;20226;-74
2023/07/19 07:55:59;;;;;;;0.00;0.00;;;;;;;;;;5083438;28;20260;-76
2023/07/19 07:58:26;;;;;;;0.00;0.00;;;;;;;;;;5096159;28;20203;-75
2023/07/19 08:00:53;;;;;;;0.10;0.10;;;;;;;;;;5082325;28;20245;-74
2023/07/19 08:03:20;;;;;;;0.00;0.00;;;;;;;;;;5096835;28;20231;-76
2023/07/19 08:05:46;;;;;;;0.00;0.00;;;;;;;;;;5081730;28;20513;-76
2023/07/19 08:08:13;;;;;;;0.00;0.00;;;;;;;;;;5097441;28;20242;-76
2023/07/19 08:10:39;;;;;;;0.00;0.00;;;;;;;;;;5080726;28;20493;-76
2023/07/19 08:13:05;;;;;;;0.00;0.00;;;;;;;;;;5098259;28;20395;-76
2023/07/19 08:15:33;;;;;;;0.00;0.00;;;;;;;;;;5079479;28;20258;-75
2023/07/19 08:18:00;;;;;;;0.00;0.00;;;;;;;;;;5098891;28;20457;-76
2023/07/19 08:20:26;;;;;;;0.00;0.00;;;;;;;;;;5078588;28;20266;-76
2023/07/19 08:22:53;;;;;;;0.00;0.00;;;;;;;;;;5099877;28;20253;-76
2023/07/19 08:25:20;;;;;;;0.00;0.00;;;;;;;;;;5077459;28;20242;-76
2023/07/19 08:27:46;;;;;;;0.17;0.17;;;;;;;;;;5100722;28;20402;-76
2023/07/19 08:30:15;;;;;;;0.00;0.00;;;;;;;;;;5076485;28;20204;-76
2023/07/19 08:32:43;;;;;;;0.00;0.00;;;;;;;;;;5101000;28;20238;-76
2023/07/19 08:35:10;;;;;;;0.00;0.00;;;;;;;;;;5076189;28;20275;-76
2023/07/19 08:37:36;;;;;;;0.00;0.00;;;;;;;;;;5101549;28;20289;-76
2023/07/19 08:40:03;;;;;;;0.00;0.00;;;;;;;;;;5086136;28;20235;-76
2023/07/19 08:42:29;;;;;;;0.10;0.10;;;;;;;;;;5091512;28;20314;-76
2023/07/19 08:44:56;;;;;;;0.00;0.00;;;;;;;;;;5086385;28;20211;-76
2023/07/19 08:47:22;;;;;;;0.10;0.10;;;;;;;;;;5091500;28;20309;-76
2023/07/19 08:49:50;;;;;;;0.00;0.00;;;;;;;;;;5086292;28;20203;-76
2023/07/19 08:52:18;;;;;;;0.00;0.00;;;;;;;;;;5091466;28;20245;-76
2023/07/19 08:54:44;;;;;;;0.00;0.00;;;;;;;;;;5085913;28;20203;-75
2023/07/19 08:57:10;;;;;;;0.03;0.03;;;;;;;;;;5091198;28;20501;-75
2023/07/19 08:59:37;;;;;;;0.10;0.10;;;;;;;;;;5085853;28;20238;-75
2023/07/19 09:02:03;;;;;;;0.10;0.10;;;;;;;;;;5090253;28;20238;-75
2023/07/19 09:04:30;;;;;;;0.00;0.00;;;;;;;;;;5086463;28;20271;-75
2023/07/19 09:07:03;;;;;;;0.00;0.00;;;;;;;;;;5089655;28;20266;-75
2023/07/19 09:09:29;;;;;;;0.00;0.00;;;;;;;;;;5086360;28;20191;-75
2023/07/19 09:11:56;;;;;;;0.00;0.00;;;;;;;;;;5089418;28;20558;-75
2023/07/19 09:14:33;;;;;;;0.10;0.10;;;;;;;;;;5087230;28;20527;-75
2023/07/19 09:17:00;;;;;;;0.10;0.10;;;;;;;;;;5089785;28;20239;-75
2023/07/19 09:19:26;;;;;;;0.00;0.00;;;;;;;;;;5086290;28;20246;-75
2023/07/19 09:21:52;;;;;;;0.00;0.00;;;;;;;;;;5089030;28;20297;-75
2023/07/19 09:24:20;;;;;;;0.00;0.00;;;;;;;;;;5087332;28;20270;-75
2023/07/19 09:26:50;;;;;;;0.00;0.00;;;;;;;;;;5087746;28;20302;-75
2023/07/19 09:29:17;;;;;;;0.00;0.00;;;;;;;;;;5087634;28;20211;-75
2023/07/19 09:31:54;;;;;;;0.00;0.00;;;;;;;;;;5087315;28;20246;-75
2023/07/19 09:34:23;;;;;;;0.00;0.00;;;;;;;;;;5087108;28;20213;-75
2023/07/19 09:36:51;;;;;;;0.00;0.00;;;;;;;;;;5088177;28;20235;-75
2023/07/19 09:39:17;;;;;;;0.10;0.10;;;;;;;;;;5086889;28;20238;-75
2023/07/19 09:41:46;;;;;;;0.00;0.00;;;;;;;;;;5087325;28;20253;-75
2023/07/19 09:44:15;;;;;;;0.03;0.03;;;;;;;;;;5087419;28;20230;-75
2023/07/19 09:46:42;;;;;;;0.00;0.00;;;;;;;;;;5086871;28;20238;-75
2023/07/19 09:49:08;;;;;;;0.00;0.00;;;;;;;;;;5088292;28;20219;-75
2023/07/19 09:51:35;;;;;;;0.00;0.00;;;;;;;;;;5085977;28;20243;-75
2023/07/19 09:54:03;;;;;;;0.10;0.10;;;;;;;;;;5089019;28;20204;-75
2023/07/19 09:56:30;;;;;;;0.00;0.00;;;;;;;;;;5085160;28;20285;-75
2023/07/19 09:58:58;;;;;;;0.10;0.10;;;;;;;;;;5089727;28;20456;-75
2023/07/19 10:01:25;;;;;;;0.00;0.00;;;;;;;;;;5084294;28;20238;-75
2023/07/19 10:03:51;;;;;;;0.10;0.10;;;;;;;;;;5089954;28;20207;-75
2023/07/19 10:06:18;;;;;;;0.00;0.00;;;;;;;;;;5083274;28;20246;-75
2023/07/19 10:08:44;;;;;;;0.00;0.00;;;;;;;;;;5091237;28;20203;-75
2023/07/19 10:11:21;;;;;;;0.00;0.00;;;;;;;;;;5082323;28;20302;-73
2023/07/19 10:13:56;;;;;;;0.00;0.00;;;;;;;;;;5090699;28;20207;-77
2023/07/19 10:16:25;;;;;;;0.10;0.10;;;;;;;;;;5083895;28;20413;-78
2023/07/19 10:19:06;;;;;;;1.27;1.17;;;;;;;;;;5090079;28;20208;-79
2023/07/19 10:21:32;;;;;;;0.00;0.00;;;;;;;;;;5084855;28;20257;-77
2023/07/19 10:24:05;;;;;;;0.00;0.00;;;;;;;;;;5088753;28;20234;-76
2023/07/19 10:26:35;;;;;;;0.00;0.00;;;;;;;;;;5084944;28;20234;-77
2023/07/19 10:29:02;;;;;;;0.00;0.00;;;;;;;;;;5088400;28;20204;-77
2023/07/19 10:31:30;;;;;;;0.00;0.00;;;;;;;;;;5084156;28;20246;-77
2023/07/19 10:33:56;;;;;;;0.00;0.00;;;;;;;;;;5089321;28;20215;-77
2023/07/19 10:36:23;;;;;;;0.10;0.10;;;;;;;;;;5083566;28;20302;-77
2023/07/19 10:38:49;;;;;;;0.00;0.00;;;;;;;;;;5090016;28;20203;-76
2023/07/19 10:41:15;;;;;;;0.15;0.15;;;;;;;;;;5082583;28;20302;-78
2023/07/19 10:43:42;;;;;;;0.00;0.00;;;;;;;;;;5090805;28;20207;-78
2023/07/19 10:46:10;;;;;;;0.00;0.00;;;;;;;;;;5081459;28;20261;-75
2023/07/19 10:48:38;;;;;;;0.00;0.00;;;;;;;;;;5091552;28;20203;-76
2023/07/19 10:51:05;;;;;;;0.00;0.00;;;;;;;;;;5081257;28;20250;-77
2023/07/19 10:53:41;;;;;;;0.00;0.00;;;;;;;;;;5092300;28;20246;-75
2023/07/19 10:56:07;;;;;;;0.00;0.00;;;;;;;;;;5080667;28;20434;-78
2023/07/19 10:58:33;;;;;;;0.10;0.10;;;;;;;;;;5091819;28;20230;-75
2023/07/19 11:01:00;;;;;;;0.00;0.00;;;;;;;;;;5080096;28;20242;-75
2023/07/19 11:03:26;;;;;;;0.00;0.00;;;;;;;;;;5092448;28;20230;-76
2023/07/19 11:05:54;;;;;;;0.00;0.00;;;;;;;;;;5079323;28;20316;-77
2023/07/19 11:08:21;;;;;;;0.00;0.00;;;;;;;;;;5093108;28;20207;-73
2023/07/19 11:10:48;;;;;;;1.10;0.65;;;;;;;;;;5078462;28;20305;-73
2023/07/19 11:13:14;;;;;;;0.00;0.00;;;;;;;;;;5094069;28;20237;-74
2023/07/19 11:15:42;;;;;;;0.00;0.00;;;;;;;;;;5077576;28;20293;-74
2023/07/19 11:18:08;;;;;;;0.00;0.00;;;;;;;;;;5094757;28;20199;-75
2023/07/19 11:20:39;;;;;;;0.00;0.00;;;;;;;;;;5076872;28;20309;-73
2023/07/19 11:23:08;;;;;;;0.10;0.10;;;;;;;;;;5095358;28;20418;-73
2023/07/19 11:25:34;;;;;;;0.00;0.00;;;;;;;;;;5076535;28;20603;-76
2023/07/19 11:28:01;;;;;;;0.00;0.00;;;;;;;;;;5095611;28;20453;-75
2023/07/19 11:30:36;;;;;;;0.00;0.00;;;;;;;;;;5075943;28;22611;-75
2023/07/19 11:33:02;;;;;;;0.38;0.38;;;;;;;;;;5095558;28;20398;-74
2023/07/19 11:35:29;;;;;;;0.00;0.00;;;;;;;;;;5075882;28;20373;-75
2023/07/19 11:37:56;;;;;;;0.45;0.45;;;;;;;;;;5096372;28;20514;-76
2023/07/19 11:40:25;;;;;;;0.00;0.00;;;;;;;;;;5075142;28;20242;-75
2023/07/19 11:42:53;;;;;;;0.00;0.00;;;;;;;;;;5096784;28;20207;-74
2023/07/19 11:45:20;;;;;;;0.00;0.00;;;;;;;;;;5074366;28;20203;-75
2023/07/19 11:47:48;;;;;;;0.00;0.00;;;;;;;;;;5097442;28;20223;-75
2023/07/19 11:50:15;;;;;;;0.00;0.00;;;;;;;;;;5073955;28;20376;-75
2023/07/19 11:52:43;;;;;;;0.00;0.00;;;;;;;;;;5097961;28;20210;-75
2023/07/19 11:55:11;;;;;;;0.10;0.10;;;;;;;;;;5073024;28;20204;-75
2023/07/19 11:57:38;;;;;;;0.00;0.00;;;;;;;;;;5098586;28;20206;-75
2023/07/19 12:00:06;;;;;;;0.47;0.47;;;;;;;;;;5083377;28;20231;-75
2023/07/19 12:02:32;;;;;;;2.08;0.85;;;;;;;;;;5088698;28;20261;-76
2023/07/19 12:04:59;;;;;;;0.00;0.00;;;;;;;;;;5083361;28;20230;-75
2023/07/19 12:07:25;;;;;;;0.00;0.00;;;;;;;;;;5089211;28;20254;-75
2023/07/19 12:09:52;;;;;;;0.00;0.00;;;;;;;;;;5086680;28;20204;-75
2023/07/19 12:12:18;;;;;;;0.00;0.00;;;;;;;;;;5092279;28;20262;-75
2023/07/19 12:14:46;;;;;;;0.00;0.00;;;;;;;;;;5087028;28;20203;-75
2023/07/19 12:17:12;;;;;;;0.00;0.00;;;;;;;;;;5092104;28;20237;-75
2023/07/19 12:19:38;;;;;;;0.00;0.00;;;;;;;;;;5086688;28;20203;-75
2023/07/19 12:22:05;;;;;;;0.80;0.30;;;;;;;;;;5091473;28;20305;-75
2023/07/19 12:24:31;;;;;;;0.00;0.00;;;;;;;;;;5087176;28;20486;-75
2023/07/19 12:26:57;;;;;;;0.00;0.00;;;;;;;;;;5090681;28;20238;-75
2023/07/19 12:29:25;;;;;;;0.20;0.20;;;;;;;;;;5087905;28;20242;-75
2023/07/19 12:31:53;;;;;;;0.00;0.00;;;;;;;;;;5089885;28;20444;-75
2023/07/19 12:34:20;;;;;;;0.10;0.10;;;;;;;;;;5088641;28;20221;-75
2023/07/19 12:36:47;;;;;;;0.17;0.17;;;;;;;;;;5088993;28;20235;-76
2023/07/19 12:39:13;;;;;;;0.13;0.05;;;;;;;;;;5088892;28;20274;-75
2023/07/19 12:41:40;;;;;;;0.00;0.00;;;;;;;;;;5087908;28;20245;-75
2023/07/19 12:44:06;;;;;;;0.00;0.00;;;;;;;;;;5090005;28;20218;-75
2023/07/19 12:46:33;;;;;;;0.00;0.00;;;;;;;;;;5087102;28;20234;-75
2023/07/19 12:49:01;;;;;;;0.00;0.00;;;;;;;;;;5090827;28;20203;-75
2023/07/19 12:51:28;;;;;;;0.00;0.00;;;;;;;;;;5086096;28;20242;-75
2023/07/19 12:53:55;;;;;;;0.00;0.00;;;;;;;;;;5091677;28;20491;-75
2023/07/19 12:56:21;;;;;;;0.00;0.00;;;;;;;;;;5085643;28;20434;-75
2023/07/19 12:58:48;;;;;;;0.00;0.00;;;;;;;;;;5092068;28;20249;-75
2023/07/19 13:01:15;;;;;;;0.00;0.00;;;;;;;;;;5084099;28;20309;-75
2023/07/19 13:03:41;;;;;;;0.20;0.20;;;;;;;;;;5092927;28;20196;-75
2023/07/19 13:06:09;;;;;;;0.00;0.00;;;;;;;;;;5083722;28;20311;-75
2023/07/19 13:08:35;;;;;;;0.00;0.00;;;;;;;;;;5093508;28;20239;-75
2023/07/19 13:11:01;;;;;;;0.00;0.00;;;;;;;;;;5082566;28;20234;-74
2023/07/19 13:13:28;;;;;;;0.00;0.00;;;;;;;;;;5094523;28;20230;-75
2023/07/19 13:15:54;;;;;;;0.45;0.45;;;;;;;;;;5081454;28;20239;-75
2023/07/19 13:18:21;;;;;;;0.00;0.00;;;;;;;;;;5095342;28;20203;-74
2023/07/19 13:20:47;;;;;;;0.00;0.00;;;;;;;;;;5079476;28;20301;-74
2023/07/19 13:23:16;;;;;;;0.70;0.17;;;;;;;;;;5096461;28;20453;-75
2023/07/19 13:25:43;;;;;;;0.10;0.10;;;;;;;;;;5079940;28;20246;-75
2023/07/19 13:28:10;;;;;;;0.00;0.00;;;;;;;;;;5096344;28;20294;-75
2023/07/19 13:30:37;;;;;;;0.35;0.28;;;;;;;;;;5078957;28;20562;-74
2023/07/19 13:33:04;;;;;;;0.00;0.00;;;;;;;;;;5097195;28;20245;-74
2023/07/19 13:35:30;;;;;;;0.00;0.00;;;;;;;;;;5077881;28;20247;-74
2023/07/19 13:37:56;;;;;;;0.00;0.00;;;;;;;;;;5098482;28;20425;-75
2023/07/19 13:40:24;;;;;;;0.05;0.05;;;;;;;;;;5077262;28;20468;-74
2023/07/19 13:42:50;;;;;;;0.00;0.00;;;;;;;;;;5098711;28;20279;-75
2023/07/19 13:45:17;;;;;;;0.00;0.00;;;;;;;;;;5076353;28;20555;-75
2023/07/19 13:47:44;;;;;;;0.10;0.10;;;;;;;;;;5099728;28;20465;-75
2023/07/19 13:50:10;;;;;;;0.00;0.00;;;;;;;;;;5075248;28;20203;-74
2023/07/19 13:52:36;;;;;;;0.17;0.17;;;;;;;;;;5100640;28;20270;-74
2023/07/19 13:55:03;;;;;;;0.00;0.00;;;;;;;;;;5085178;28;20203;-75
2023/07/19 13:57:31;;;;;;;0.10;0.10;;;;;;;;;;5090213;28;20258;-74
2023/07/19 13:59:57;;;;;;;0.00;0.00;;;;;;;;;;5085003;28;20429;-74
2023/07/19 14:02:24;;;;;;;0.00;0.00;;;;;;;;;;5090314;28;20245;-75
2023/07/19 14:04:50;;;;;;;0.05;0.05;;;;;;;;;;5085171;28;20371;-75
2023/07/19 14:07:17;;;;;;;0.05;0.05;;;;;;;;;;5090100;28;20234;-74
2023/07/19 14:09:43;;;;;;;0.00;0.00;;;;;;;;;;5084623;28;20210;-75
2023/07/19 14:12:10;;;;;;;0.00;0.00;;;;;;;;;;5089973;28;20239;-75
2023/07/19 14:14:37;;;;;;;0.00;0.00;;;;;;;;;;5084860;28;20230;-75
2023/07/19 14:17:04;;;;;;;0.10;0.10;;;;;;;;;;5089426;28;20234;-74
2023/07/19 14:19:30;;;;;;;0.00;0.00;;;;;;;;;;5085133;28;20253;-75
2023/07/19 14:21:57;;;;;;;0.00;0.00;;;;;;;;;;5088435;28;20254;-75
2023/07/19 14:24:24;;;;;;;0.00;0.00;;;;;;;;;;5085778;28;20381;-77
2023/07/19 14:26:50;;;;;;;0.08;0.08;;;;;;;;;;5087314;28;20238;-74
2023/07/19 14:29:17;;;;;;;0.00;0.00;;;;;;;;;;5086537;28;20402;-75
2023/07/19 14:31:45;;;;;;;0.05;0.05;;;;;;;;;;5086338;28;20564;-76
2023/07/19 14:34:11;;;;;;;0.00;0.00;;;;;;;;;;5086837;28;20218;-75
2023/07/19 14:36:38;;;;;;;0.00;0.00;;;;;;;;;;5085695;28;20272;-75
2023/07/19 14:39:04;;;;;;;0.10;0.10;;;;;;;;;;5087880;28;20196;-75
2023/07/19 14:41:31;;;;;;;0.10;0.10;;;;;;;;;;5084406;28;20238;-75